OIII/THR METAR and TAF weather

Enter ICAO airport designator
Station Type Date Time Source
OIII METAR 2020/07/06 08:30 UTC NOAA

OIII 060830Z 14008KT 9999 FEW035 SCT090 31/02 Q1009 A2982


Station Type Date Time Source
OIII Decoded METAR 2020/07/06 08:30 UTC NOAA

Tehran-Mehrabad, Iran (OIII) 35-41N 051-21E 1191M
Jul 06, 2020 - 04:30 AM EDT / 2020.07.06 0830 UTC
Wind: from the SE (140 degrees) at 9 MPH (8 KT):0
Visibility: greater than 7 mile(s):0
Sky conditions: partly cloudy
Temperature: 87 F (31 C)
Dew Point: 35 F (2 C)
Relative Humidity: 15%
Pressure (altimeter): 29.82 in. Hg (1009 hPa)
ob: OIII 060830Z 14008KT 9999 FEW035 SCT090 31/02 Q1009 A2982
cycle: 8

Station Type Date Time Source
OIII TAF 2020/07/06 06:54 UTC NOAA

TAF OIII 060530Z 0606/0712 16006KT 7000 FEW035 BKN090
TEMPO 0608/0616 16020KT FEW035CB SCT040 BKN100 PROB40 TS/SHRA
BECMG 0618/0620 FEW040
TEMPO 0706/0712 16016KT FEW035CB SCT040 BKN100 PROB30 TS/SHRA

Example: see airport list